createdAt,value
2022-09-18T00:01:38.625Z,11.22
2022-09-18T00:04:11.467Z,11.30
2022-09-18T00:06:40.717Z,11.20
2022-09-18T00:09:12.974Z,11.20
2022-09-18T00:11:44.980Z,11.20
2022-09-18T00:14:17.248Z,11.20
2022-09-18T00:16:45.336Z,11.24
2022-09-18T00:19:14.397Z,11.28
2022-09-18T00:21:46.283Z,11.30
2022-09-18T00:24:15.087Z,11.30
2022-09-18T00:26:46.861Z,11.30
2022-09-18T00:29:16.370Z,11.30
2022-09-18T00:31:44.603Z,11.30
2022-09-18T00:34:15.042Z,11.30
2022-09-18T00:36:43.041Z,11.30
2022-09-18T00:39:12.025Z,11.32
2022-09-18T00:41:41.991Z,11.40
2022-09-18T00:44:36.946Z,11.40
2022-09-18T00:47:10.824Z,11.40
2022-09-18T00:49:52.364Z,11.40
2022-09-18T00:52:24.230Z,11.40
2022-09-18T00:54:59.144Z,11.40
2022-09-18T00:57:35.865Z,11.40
2022-09-18T01:00:14.717Z,11.40
2022-09-18T01:02:43.766Z,11.40
2022-09-18T01:05:14.676Z,11.44
2022-09-18T01:08:19.023Z,11.42
2022-09-18T01:11:33.823Z,11.42
2022-09-18T01:14:36.601Z,11.46
2022-09-18T01:17:19.938Z,11.48
2022-09-18T01:20:09.008Z,11.50
2022-09-18T01:23:05.793Z,11.44
2022-09-18T01:26:01.510Z,11.46
2022-09-18T01:28:38.980Z,11.44
2022-09-18T01:31:15.904Z,11.40
2022-09-18T01:34:01.057Z,11.50
2022-09-18T01:36:34.579Z,11.40
2022-09-18T01:39:34.903Z,11.40
2022-09-18T01:42:05.471Z,11.40
2022-09-18T01:44:35.187Z,11.40
2022-09-18T01:47:11.302Z,11.42
2022-09-18T01:49:46.666Z,11.42
2022-09-18T01:52:27.855Z,11.44
2022-09-18T01:54:58.632Z,11.48
2022-09-18T01:57:44.890Z,11.50
2022-09-18T02:00:14.460Z,11.50
2022-09-18T02:03:09.889Z,11.50
2022-09-18T02:05:44.314Z,11.50
2022-09-18T02:08:18.398Z,11.50
2022-09-18T02:10:54.078Z,11.50
2022-09-18T02:13:29.065Z,11.50
2022-09-18T02:16:05.488Z,11.50
2022-09-18T02:18:46.383Z,11.48
2022-09-18T02:21:28.334Z,11.46
2022-09-18T02:24:07.837Z,11.42
2022-09-18T02:26:39.019Z,11.46
2022-09-18T02:29:12.401Z,11.42
2022-09-18T02:31:40.724Z,11.40
2022-09-18T02:34:10.466Z,11.42
2022-09-18T02:37:18.756Z,11.40
2022-09-18T02:40:10.300Z,11.40
2022-09-18T02:42:47.840Z,11.40
2022-09-18T02:45:45.350Z,11.40
2022-09-18T02:48:37.048Z,11.40
2022-09-18T02:51:29.144Z,11.40
2022-09-18T02:54:30.263Z,11.40
2022-09-18T02:57:16.554Z,11.40
2022-09-18T02:59:56.921Z,11.40
2022-09-18T03:02:26.278Z,11.40
2022-09-18T03:04:54.826Z,11.40
2022-09-18T03:07:45.614Z,11.40
2022-09-18T03:10:13.377Z,11.40
2022-09-18T03:12:41.160Z,11.40
2022-09-18T03:15:11.155Z,11.40
2022-09-18T03:17:38.933Z,11.40
2022-09-18T03:20:07.565Z,11.40
2022-09-18T03:22:36.096Z,11.40
2022-09-18T03:25:04.585Z,11.36
2022-09-18T03:27:34.108Z,11.40
2022-09-18T03:30:02.377Z,11.40
2022-09-18T03:32:32.509Z,11.40
2022-09-18T03:35:00.371Z,11.40
2022-09-18T03:37:29.308Z,11.40
2022-09-18T03:39:58.873Z,11.40
2022-09-18T03:42:26.748Z,11.50
2022-09-18T03:44:54.563Z,11.46
2022-09-18T03:47:31.828Z,11.50
2022-09-18T03:50:02.682Z,11.50
2022-09-18T03:52:34.299Z,11.50
2022-09-18T03:55:11.168Z,11.50
2022-09-18T03:58:02.249Z,11.50
2022-09-18T04:00:50.724Z,11.50
2022-09-18T04:03:22.064Z,11.50
2022-09-18T04:06:16.230Z,11.50
2022-09-18T04:09:04.663Z,11.50
2022-09-18T04:11:39.420Z,11.50
2022-09-18T04:14:07.636Z,11.52
2022-09-18T04:16:35.623Z,11.60
2022-09-18T04:19:04.022Z,11.60
2022-09-18T04:21:32.702Z,11.60
2022-09-18T04:24:01.050Z,11.60
2022-09-18T04:26:28.815Z,11.60
2022-09-18T04:28:57.999Z,11.60
2022-09-18T04:31:25.860Z,11.60
2022-09-18T04:33:54.061Z,11.60
2022-09-18T04:36:23.076Z,11.60
2022-09-18T04:38:50.896Z,11.60
2022-09-18T04:41:18.643Z,11.60
2022-09-18T04:43:46.534Z,11.60
2022-09-18T04:46:15.039Z,11.60
2022-09-18T04:48:49.322Z,11.64
2022-09-18T04:51:17.610Z,11.60
2022-09-18T04:53:49.494Z,11.64
2022-09-18T04:56:17.785Z,11.60
2022-09-18T04:58:49.577Z,11.70
2022-09-18T05:01:17.706Z,11.70
2022-09-18T05:03:45.918Z,11.70
2022-09-18T05:06:20.654Z,11.70
2022-09-18T05:08:48.491Z,11.70
2022-09-18T05:11:16.412Z,11.70
2022-09-18T05:13:44.375Z,11.74
2022-09-18T05:16:15.946Z,11.70
2022-09-18T05:18:46.782Z,11.72
2022-09-18T05:21:14.705Z,11.70
2022-09-18T05:23:43.003Z,11.70
2022-09-18T05:26:13.009Z,11.70
2022-09-18T05:28:40.942Z,11.70
2022-09-18T05:31:10.289Z,11.70
2022-09-18T05:33:42.632Z,11.74
2022-09-18T05:36:10.847Z,11.80
2022-09-18T05:38:38.671Z,11.80
2022-09-18T05:41:07.230Z,11.80
2022-09-18T05:43:35.154Z,11.80
2022-09-18T05:46:06.585Z,11.70
2022-09-18T05:48:41.333Z,11.70
2022-09-18T05:51:09.394Z,11.76
2022-09-18T05:53:38.189Z,11.78
2022-09-18T05:56:16.262Z,11.80
2022-09-18T05:58:44.642Z,11.80
2022-09-18T06:01:14.538Z,11.80
2022-09-18T06:03:59.800Z,11.70
2022-09-18T06:06:37.105Z,11.70
2022-09-18T06:09:04.887Z,11.70
2022-09-18T06:11:33.450Z,11.60
2022-09-18T06:14:01.243Z,11.60
2022-09-18T06:16:29.293Z,11.56
2022-09-18T06:19:01.031Z,11.60
2022-09-18T06:21:29.008Z,11.60
2022-09-18T06:23:57.622Z,11.52
2022-09-18T06:26:33.319Z,11.50
2022-09-18T06:29:01.262Z,11.50
2022-09-18T06:31:32.728Z,11.52
2022-09-18T06:34:06.322Z,11.60
2022-09-18T06:36:34.199Z,11.52
2022-09-18T06:39:13.526Z,11.50
2022-09-18T06:41:42.815Z,11.50
2022-09-18T06:44:19.180Z,11.40
2022-09-18T06:46:59.334Z,11.40
2022-09-18T06:49:29.751Z,11.40
2022-09-18T06:51:57.622Z,11.40
2022-09-18T06:54:26.084Z,11.40
2022-09-18T06:56:53.891Z,11.40
2022-09-18T06:59:22.767Z,11.40
2022-09-18T07:01:51.787Z,11.34
2022-09-18T07:04:32.353Z,11.30
2022-09-18T07:07:00.319Z,11.30
2022-09-18T07:09:29.013Z,11.30
2022-09-18T07:12:03.198Z,11.30
2022-09-18T07:14:41.229Z,11.30
2022-09-18T07:17:16.918Z,11.30
2022-09-18T07:19:46.030Z,11.38
2022-09-18T07:22:15.218Z,11.30
2022-09-18T07:24:45.093Z,11.30
2022-09-18T07:27:13.205Z,11.30
2022-09-18T07:29:42.269Z,11.30
2022-09-18T07:32:10.807Z,11.40
2022-09-18T07:34:38.678Z,11.40
2022-09-18T07:37:10.785Z,11.40
2022-09-18T07:39:39.686Z,11.36
2022-09-18T07:42:43.009Z,11.30
2022-09-18T07:45:11.432Z,11.30
2022-09-18T07:47:39.439Z,11.30
2022-09-18T07:50:09.327Z,11.24
2022-09-18T07:52:37.071Z,11.30
2022-09-18T07:55:05.552Z,11.20
2022-09-18T07:57:34.779Z,11.20
2022-09-18T08:00:27.279Z,11.20
2022-09-18T08:03:21.784Z,11.10
2022-09-18T08:06:28.733Z,11.18
2022-09-18T08:09:20.059Z,11.14
2022-09-18T08:12:07.122Z,11.20
2022-09-18T08:14:42.928Z,11.14
2022-09-18T08:17:34.515Z,11.10
2022-09-18T08:20:31.925Z,11.08
2022-09-18T08:23:15.001Z,11.00
2022-09-18T08:25:43.563Z,11.00
2022-09-18T08:43:22.624Z,11.10
2022-09-18T08:46:14.763Z,11.12
2022-09-18T08:53:04.790Z,11.28
2022-09-18T09:06:45.035Z,11.50
2022-09-18T09:15:29.192Z,11.48
2022-09-18T09:17:17.310Z,11.80
2022-09-18T09:20:08.779Z,12.00
2022-09-18T09:22:55.973Z,12.10
2022-09-18T09:25:37.666Z,12.20
2022-09-18T09:28:35.954Z,12.30
2022-09-18T09:31:43.988Z,12.34
2022-09-18T09:35:09.759Z,12.50
2022-09-18T09:38:58.636Z,12.64
2022-09-18T09:41:44.781Z,12.80
2022-09-18T09:44:36.117Z,12.86
2022-09-18T09:47:48.781Z,12.94
2022-09-18T09:50:44.776Z,13.10
2022-09-18T09:53:15.900Z,13.20
2022-09-18T09:57:02.526Z,13.30
2022-09-18T10:05:03.548Z,13.60
2022-09-18T10:11:57.045Z,13.80
2022-09-18T10:27:35.575Z,14.40
2022-09-18T10:44:29.644Z,14.60
2022-09-18T10:47:54.194Z,14.60
2022-09-18T11:10:49.494Z,14.42
2022-09-18T11:14:39.447Z,14.42
2022-09-18T11:22:15.534Z,14.30
2022-09-18T11:29:27.854Z,14.40
2022-09-18T11:32:58.516Z,14.40
2022-09-18T11:40:28.564Z,14.50
2022-09-18T11:43:30.729Z,14.50
2022-09-18T11:47:52.408Z,14.60
2022-09-18T11:50:39.158Z,14.60
2022-09-18T11:53:34.242Z,14.60
2022-09-18T11:56:10.953Z,14.60
2022-09-18T12:07:10.558Z,14.70
2022-09-18T12:14:26.345Z,14.90
2022-09-18T12:15:26.870Z,14.70
2022-09-18T12:17:53.333Z,14.86
2022-09-18T12:20:41.606Z,14.70
2022-09-18T12:23:26.231Z,14.70
2022-09-18T12:26:51.779Z,14.70
2022-09-18T12:29:41.666Z,14.70
2022-09-18T12:32:57.157Z,14.68
2022-09-18T12:36:03.744Z,14.60
2022-09-18T12:39:09.167Z,14.54
2022-09-18T12:42:33.236Z,14.42
2022-09-18T12:45:22.595Z,14.40
2022-09-18T12:48:25.699Z,14.40
2022-09-18T12:51:10.317Z,14.46
2022-09-18T12:53:54.953Z,14.42
2022-09-18T12:57:06.553Z,14.40
2022-09-18T12:59:56.562Z,14.40
2022-09-18T13:03:18.580Z,14.40
2022-09-18T13:10:42.962Z,14.40
2022-09-18T13:13:41.998Z,14.50
2022-09-18T13:16:23.748Z,14.50
2022-09-18T13:19:17.228Z,14.50
2022-09-18T13:21:47.819Z,14.40
2022-09-18T13:24:32.929Z,14.40
2022-09-18T13:27:13.931Z,14.38
2022-09-18T13:29:59.340Z,14.30
2022-09-18T13:32:37.412Z,14.24
2022-09-18T13:35:26.822Z,14.20
2022-09-18T13:38:15.542Z,14.10
2022-09-18T13:41:04.095Z,14.00
2022-09-18T13:43:52.415Z,13.90
2022-09-18T13:46:39.842Z,13.80
2022-09-18T13:49:43.016Z,13.80
2022-09-18T13:52:37.336Z,13.90
2022-09-18T13:55:16.421Z,13.90
2022-09-18T13:57:53.091Z,13.92
2022-09-18T14:00:21.485Z,14.00
2022-09-18T14:03:07.474Z,14.00
2022-09-18T14:05:40.507Z,13.90
2022-09-18T14:08:35.574Z,13.90
2022-09-18T14:11:17.764Z,13.80
2022-09-18T14:13:58.466Z,13.80
2022-09-18T14:16:41.150Z,13.80
2022-09-18T14:19:33.549Z,13.80
2022-09-18T14:22:02.264Z,13.80
2022-09-18T14:24:51.613Z,13.80
2022-09-18T14:28:01.845Z,13.74
2022-09-18T14:30:31.533Z,13.66
2022-09-18T14:33:28.214Z,13.60
2022-09-18T14:36:06.998Z,13.50
2022-09-18T14:38:37.870Z,13.40
2022-09-18T14:41:31.458Z,13.32
2022-09-18T14:44:06.417Z,13.30
2022-09-18T14:46:35.251Z,13.30
2022-09-18T14:49:26.298Z,13.22
2022-09-18T14:52:04.329Z,13.20
2022-09-18T14:54:40.448Z,13.20
2022-09-18T14:57:13.139Z,13.10
2022-09-18T14:59:43.573Z,13.10
2022-09-18T15:02:32.706Z,13.12
2022-09-18T15:05:04.111Z,13.12
2022-09-18T15:07:40.109Z,13.10
2022-09-18T15:10:11.629Z,13.10
2022-09-18T15:12:45.340Z,13.10
2022-09-18T15:15:40.654Z,13.08
2022-09-18T15:18:31.751Z,13.00
2022-09-18T15:21:08.341Z,13.00
2022-09-18T15:23:38.420Z,13.06
2022-09-18T15:26:15.856Z,13.00
2022-09-18T15:28:52.288Z,13.00
2022-09-18T15:31:24.164Z,13.10
2022-09-18T15:34:05.877Z,13.10
2022-09-18T15:36:38.184Z,13.00
2022-09-18T15:39:35.103Z,13.00
2022-09-18T15:42:43.223Z,13.00
2022-09-18T15:45:27.446Z,13.10
2022-09-18T15:47:58.843Z,13.06
2022-09-18T15:50:37.149Z,13.04
2022-09-18T15:53:24.819Z,13.00
2022-09-18T15:56:09.545Z,13.00
2022-09-18T15:59:00.926Z,13.00
2022-09-18T16:01:47.989Z,13.00
2022-09-18T16:04:42.464Z,12.98
2022-09-18T16:08:49.823Z,12.90
2022-09-18T16:11:46.531Z,12.90
2022-09-18T16:14:38.844Z,12.94
2022-09-18T16:17:29.158Z,12.90
2022-09-18T16:20:22.272Z,12.92
2022-09-18T16:23:11.975Z,12.92
2022-09-18T16:25:48.113Z,12.90
2022-09-18T16:28:34.548Z,12.98
2022-09-18T16:31:04.720Z,13.00
2022-09-18T16:33:39.115Z,13.00
2022-09-18T16:36:27.244Z,13.00
2022-09-18T16:39:15.051Z,13.00
2022-09-18T16:42:32.206Z,13.00
2022-09-18T16:45:12.272Z,13.02
2022-09-18T16:47:49.781Z,13.00
2022-09-18T16:50:28.454Z,13.00
2022-09-18T16:53:01.460Z,13.00
2022-09-18T16:55:41.949Z,13.00
2022-09-18T17:13:53.274Z,12.92
2022-09-18T17:16:41.347Z,12.94
2022-09-18T17:19:10.956Z,12.94
2022-09-18T17:21:39.545Z,12.90
2022-09-18T17:24:07.930Z,12.90
2022-09-18T17:26:39.945Z,12.90
2022-09-18T17:29:11.350Z,12.90
2022-09-18T17:31:39.170Z,12.90
2022-09-18T17:34:07.404Z,12.90
2022-09-18T17:36:38.094Z,12.90
2022-09-18T17:39:06.522Z,12.88
2022-09-18T17:41:34.281Z,12.90
2022-09-18T17:44:02.585Z,12.90
2022-09-18T17:46:30.658Z,12.90
2022-09-18T17:48:59.828Z,12.86
2022-09-18T17:51:29.159Z,12.80
2022-09-18T17:54:04.350Z,12.80
2022-09-18T17:56:33.617Z,12.72
2022-09-18T17:59:07.786Z,12.70
2022-09-18T18:01:40.056Z,12.60
2022-09-18T18:04:08.113Z,12.60
2022-09-18T18:06:37.116Z,12.60
2022-09-18T18:09:07.307Z,12.60
2022-09-18T18:11:35.266Z,12.60
2022-09-18T18:14:04.280Z,12.54
2022-09-18T18:16:34.506Z,12.50
2022-09-18T18:19:06.041Z,12.50
2022-09-18T18:21:34.769Z,12.50
2022-09-18T18:24:08.981Z,12.50
2022-09-18T18:26:38.842Z,12.44
2022-09-18T18:29:10.778Z,12.40
2022-09-18T18:31:42.191Z,12.40
2022-09-18T18:34:12.320Z,12.38
2022-09-18T18:36:42.057Z,12.30
2022-09-18T18:39:12.993Z,12.30
2022-09-18T18:41:41.346Z,12.30
2022-09-18T18:44:11.478Z,12.30
2022-09-18T18:46:40.219Z,12.30
2022-09-18T18:49:12.513Z,12.30
2022-09-18T18:51:43.731Z,12.20
2022-09-18T18:54:12.969Z,12.20
2022-09-18T18:56:41.652Z,12.20
2022-09-18T18:59:13.582Z,12.20
2022-09-18T19:01:42.766Z,12.20
2022-09-18T19:04:14.947Z,12.20
2022-09-18T19:06:44.421Z,12.20
2022-09-18T19:09:24.555Z,12.20
2022-09-18T19:11:53.094Z,12.20
2022-09-18T19:14:25.256Z,12.20
2022-09-18T19:16:55.031Z,12.20
2022-09-18T19:19:25.276Z,12.20
2022-09-18T19:21:53.551Z,12.20
2022-09-18T19:24:21.703Z,12.20
2022-09-18T19:26:49.768Z,12.20
2022-09-18T19:29:21.521Z,12.20
2022-09-18T19:31:50.887Z,12.20
2022-09-18T19:34:22.117Z,12.14
2022-09-18T19:36:51.903Z,12.10
2022-09-18T19:39:21.498Z,12.12
2022-09-18T19:42:14.887Z,12.10
2022-09-18T19:44:56.282Z,12.10
2022-09-18T19:47:30.607Z,12.10
2022-09-18T19:50:01.735Z,12.10
2022-09-18T19:52:29.765Z,12.08
2022-09-18T19:54:59.162Z,12.00
2022-09-18T19:57:28.508Z,12.00
2022-09-18T19:59:57.280Z,12.00
2022-09-18T20:02:26.953Z,12.00
2022-09-18T20:04:55.606Z,11.98
2022-09-18T20:07:23.387Z,11.96
2022-09-18T20:09:51.561Z,11.90
2022-09-18T20:12:19.618Z,11.90
2022-09-18T20:14:47.862Z,11.90
2022-09-18T20:17:15.686Z,11.90
2022-09-18T20:19:43.436Z,11.84
2022-09-18T20:22:11.439Z,11.90
2022-09-18T20:24:39.216Z,11.90
2022-09-18T20:27:06.925Z,11.86
2022-09-18T20:29:34.740Z,11.90
2022-09-18T20:32:02.904Z,11.90
2022-09-18T20:34:30.713Z,11.90
2022-09-18T20:36:59.117Z,11.80
2022-09-18T20:39:27.329Z,11.80
2022-09-18T20:42:00.487Z,11.80
2022-09-18T20:44:28.856Z,11.80
2022-09-18T20:46:57.999Z,11.70
2022-09-18T20:49:26.114Z,11.70
2022-09-18T20:51:54.562Z,11.70
2022-09-18T20:54:22.845Z,11.70
2022-09-18T20:56:50.629Z,11.66
2022-09-18T20:59:19.493Z,11.60
2022-09-18T21:01:48.452Z,11.52
2022-09-18T21:04:19.578Z,11.50
2022-09-18T21:06:55.289Z,11.54
2022-09-18T21:09:26.474Z,11.60
2022-09-18T21:11:56.826Z,11.60
2022-09-18T21:14:27.355Z,11.58
2022-09-18T21:16:55.784Z,11.50
2022-09-18T21:19:26.182Z,11.50
2022-09-18T21:21:54.370Z,11.50
2022-09-18T21:24:22.460Z,11.50
2022-09-18T21:26:50.499Z,11.50
2022-09-18T21:29:26.228Z,11.46
2022-09-18T21:31:58.290Z,11.48
2022-09-18T21:34:31.658Z,11.40
2022-09-18T21:37:08.133Z,11.40
2022-09-18T21:39:36.002Z,11.40
2022-09-18T21:42:09.513Z,11.40
2022-09-18T21:44:39.151Z,11.40
2022-09-18T21:47:08.697Z,11.30
2022-09-18T21:49:36.479Z,11.36
2022-09-18T21:52:07.655Z,11.30
2022-09-18T21:54:35.879Z,11.30
2022-09-18T21:57:04.435Z,11.32
2022-09-18T21:59:32.950Z,11.30
2022-09-18T22:02:02.243Z,11.30
2022-09-18T22:04:32.811Z,11.30
2022-09-18T22:07:01.881Z,11.30
2022-09-18T22:09:39.141Z,11.30
2022-09-18T22:12:07.872Z,11.34
2022-09-18T22:14:38.240Z,11.32
2022-09-18T22:17:08.715Z,11.30
2022-09-18T22:19:41.111Z,11.30
2022-09-18T22:22:11.179Z,11.30
2022-09-18T22:24:39.322Z,11.30
2022-09-18T22:27:10.225Z,11.30
2022-09-18T22:29:40.220Z,11.30
2022-09-18T22:32:10.903Z,11.26
2022-09-18T22:34:39.063Z,11.20
2022-09-18T22:37:07.967Z,11.20
2022-09-18T22:39:35.715Z,11.20
2022-09-18T22:42:03.642Z,11.18
2022-09-18T22:44:31.549Z,11.06
2022-09-18T22:46:59.596Z,11.10
2022-09-18T22:49:27.544Z,11.00
2022-09-18T22:51:55.366Z,11.00
2022-09-18T22:54:26.074Z,11.00
2022-09-18T22:56:55.189Z,11.00
2022-09-18T22:59:26.222Z,11.00
2022-09-18T23:02:02.384Z,10.94
2022-09-18T23:04:33.587Z,10.90
2022-09-18T23:07:03.333Z,10.90
2022-09-18T23:09:31.910Z,10.80
2022-09-18T23:11:59.967Z,10.80
2022-09-18T23:14:31.197Z,10.72
2022-09-18T23:17:00.942Z,10.80
2022-09-18T23:19:34.232Z,10.70
2022-09-18T23:22:03.013Z,10.70
2022-09-18T23:24:31.784Z,10.70
2022-09-18T23:26:59.727Z,10.70
2022-09-18T23:29:28.666Z,10.60
2022-09-18T23:31:59.765Z,10.60
2022-09-18T23:34:31.254Z,10.58
2022-09-18T23:37:00.351Z,10.58
2022-09-18T23:39:34.281Z,10.56
2022-09-18T23:42:05.620Z,10.54
2022-09-18T23:44:33.529Z,10.50
2022-09-18T23:47:01.897Z,10.50
2022-09-18T23:49:30.822Z,10.50
2022-09-18T23:52:00.046Z,10.50
2022-09-18T23:54:30.735Z,10.40
2022-09-18T23:56:58.626Z,10.32
2022-09-18T23:59:26.919Z,10.30
